createdAt,value
2022-10-29T00:00:18.919Z,13.50
2022-10-29T00:03:21.483Z,13.38
2022-10-29T00:06:23.066Z,13.27
2022-10-29T00:09:24.566Z,13.26
2022-10-29T00:12:26.081Z,13.20
2022-10-29T00:15:27.774Z,13.20
2022-10-29T00:18:30.382Z,13.09
2022-10-29T00:21:32.796Z,13.06
2022-10-29T00:24:34.399Z,13.09
2022-10-29T00:27:35.955Z,13.14
2022-10-29T00:30:37.525Z,13.23
2022-10-29T00:33:39.156Z,13.24
2022-10-29T00:36:40.760Z,13.28
2022-10-29T00:39:42.270Z,13.25
2022-10-29T00:42:43.886Z,13.19
2022-10-29T00:45:53.336Z,13.12
2022-10-29T00:48:56.535Z,13.04
2022-10-29T00:52:01.052Z,13.02
2022-10-29T00:55:07.227Z,12.99
2022-10-29T00:58:33.982Z,12.95
2022-10-29T01:01:38.172Z,12.98
2022-10-29T01:04:41.268Z,12.96
2022-10-29T01:07:43.014Z,13.02
2022-10-29T01:10:59.591Z,13.06
2022-10-29T01:14:24.337Z,13.11
2022-10-29T01:18:04.563Z,13.16
2022-10-29T01:21:27.686Z,13.15
2022-10-29T01:24:57.468Z,13.13
2022-10-29T01:28:17.363Z,13.10
2022-10-29T01:31:32.581Z,13.11
2022-10-29T01:34:50.796Z,13.12
2022-10-29T01:38:43.010Z,13.14
2022-10-29T01:41:59.925Z,13.15
2022-10-29T01:45:17.659Z,13.13
2022-10-29T01:48:33.046Z,13.12
2022-10-29T01:51:36.875Z,13.13
2022-10-29T01:54:43.918Z,13.09
2022-10-29T01:57:45.431Z,13.09
2022-10-29T02:00:56.584Z,13.10
2022-10-29T02:04:19.347Z,13.14
2022-10-29T02:07:55.747Z,13.13
2022-10-29T02:11:08.740Z,13.09
2022-10-29T02:14:17.573Z,13.03
2022-10-29T02:17:19.510Z,13.02
2022-10-29T02:20:21.394Z,13.02
2022-10-29T02:23:23.005Z,13.03
2022-10-29T02:26:24.643Z,13.01
2022-10-29T02:29:26.220Z,13.00
2022-10-29T02:32:27.765Z,13.04
2022-10-29T02:35:29.283Z,13.04
2022-10-29T02:38:30.860Z,13.05
2022-10-29T02:41:32.409Z,12.97
2022-10-29T02:44:33.980Z,12.95
2022-10-29T02:47:35.497Z,12.92
2022-10-29T02:50:37.510Z,12.87
2022-10-29T02:53:39.471Z,12.82
2022-10-29T02:56:41.034Z,12.76
2022-10-29T02:59:42.595Z,12.70
2022-10-29T03:02:44.272Z,12.65
2022-10-29T03:05:49.024Z,12.63
2022-10-29T03:08:50.999Z,12.59
2022-10-29T03:11:52.595Z,12.54
2022-10-29T03:14:54.134Z,12.47
2022-10-29T03:17:56.052Z,12.41
2022-10-29T03:20:57.769Z,12.38
2022-10-29T03:23:59.351Z,12.33
2022-10-29T03:27:00.963Z,12.30
2022-10-29T03:30:02.517Z,12.28
2022-10-29T03:33:04.229Z,12.24
2022-10-29T03:36:07.304Z,12.20
2022-10-29T03:39:08.850Z,12.15
2022-10-29T03:42:10.435Z,12.09
2022-10-29T03:45:12.351Z,12.02
2022-10-29T03:48:13.978Z,12.01
2022-10-29T03:51:15.598Z,12.03
2022-10-29T03:54:17.182Z,12.01
2022-10-29T03:57:18.787Z,12.00
2022-10-29T04:00:20.348Z,11.97
2022-10-29T04:03:21.923Z,11.93
2022-10-29T04:06:23.457Z,11.90
2022-10-29T04:09:25.060Z,11.89
2022-10-29T04:12:26.663Z,11.84
2022-10-29T04:15:28.177Z,11.80
2022-10-29T04:18:29.810Z,11.78
2022-10-29T04:23:25.439Z,11.78
2022-10-29T04:31:37.350Z,11.66
2022-10-29T04:34:38.885Z,11.65
2022-10-29T04:37:40.499Z,11.61
2022-10-29T04:40:41.978Z,11.59
2022-10-29T04:43:43.585Z,11.57
2022-10-29T04:46:45.135Z,11.55
2022-10-29T04:49:46.637Z,11.54
2022-10-29T04:52:48.255Z,11.52
2022-10-29T04:55:49.841Z,11.52
2022-10-29T04:58:52.724Z,11.50
2022-10-29T05:01:54.264Z,11.49
2022-10-29T05:04:55.804Z,11.49
2022-10-29T05:08:01.822Z,11.48
2022-10-29T05:11:05.135Z,11.45
2022-10-29T05:14:06.724Z,11.35
2022-10-29T05:17:08.444Z,11.33
2022-10-29T05:20:10.388Z,11.39
2022-10-29T05:23:12.175Z,11.37
2022-10-29T05:26:13.771Z,11.38
2022-10-29T05:29:15.379Z,11.30
2022-10-29T05:32:17.086Z,11.24
2022-10-29T05:35:18.702Z,11.26
2022-10-29T05:38:20.450Z,11.25
2022-10-29T05:41:21.950Z,11.23
2022-10-29T05:44:23.741Z,11.23
2022-10-29T05:47:25.784Z,11.18
2022-10-29T05:50:32.203Z,11.17
2022-10-29T05:53:33.791Z,11.16
2022-10-29T05:56:35.331Z,11.21
2022-10-29T05:59:36.919Z,11.18
2022-10-29T06:02:38.632Z,11.18
2022-10-29T06:05:40.258Z,11.16
2022-10-29T06:08:41.886Z,11.21
2022-10-29T06:11:43.771Z,11.18
2022-10-29T06:14:45.287Z,11.17
2022-10-29T06:17:47.633Z,11.18
2022-10-29T06:20:49.115Z,11.23
2022-10-29T06:23:54.006Z,11.27
2022-10-29T06:26:55.519Z,11.29
2022-10-29T06:29:57.145Z,11.31
2022-10-29T06:32:59.904Z,11.31
2022-10-29T06:36:01.839Z,11.32
2022-10-29T06:39:03.412Z,11.38
2022-10-29T06:42:05.030Z,11.47
2022-10-29T06:45:07.244Z,11.52
2022-10-29T06:48:09.114Z,11.59
2022-10-29T06:51:10.856Z,11.59
2022-10-29T06:54:12.533Z,11.67
2022-10-29T06:57:14.057Z,11.74
2022-10-29T07:00:15.704Z,11.82
2022-10-29T07:03:19.277Z,11.85
2022-10-29T07:06:20.734Z,11.90
2022-10-29T07:09:22.238Z,11.93
2022-10-29T07:12:23.783Z,11.92
2022-10-29T07:15:27.908Z,12.00
2022-10-29T07:18:32.762Z,12.10
2022-10-29T07:21:34.218Z,12.24
2022-10-29T07:24:35.687Z,12.33
2022-10-29T07:27:37.228Z,12.42
2022-10-29T07:30:39.391Z,12.56
2022-10-29T07:33:40.907Z,12.69
2022-10-29T07:36:42.471Z,12.83
2022-10-29T07:39:43.973Z,13.04
2022-10-29T07:42:45.549Z,13.24
2022-10-29T07:45:52.677Z,13.42
2022-10-29T07:48:54.200Z,13.64
2022-10-29T07:51:55.886Z,13.76
2022-10-29T07:54:57.502Z,13.89
2022-10-29T07:58:02.232Z,14.01
2022-10-29T08:01:05.127Z,14.11
2022-10-29T08:04:06.652Z,14.21
2022-10-29T08:07:08.157Z,14.34
2022-10-29T08:10:09.834Z,14.38
2022-10-29T08:13:11.423Z,14.47
2022-10-29T08:16:12.955Z,14.58
2022-10-29T08:19:14.468Z,14.66
2022-10-29T08:22:16.691Z,14.78
2022-10-29T08:25:23.880Z,14.97
2022-10-29T08:28:25.831Z,15.18
2022-10-29T08:31:27.629Z,15.31
2022-10-29T08:34:29.110Z,15.48
2022-10-29T08:37:31.705Z,15.60
2022-10-29T08:40:52.626Z,15.74
2022-10-29T08:47:16.533Z,16.04
2022-10-29T08:50:30.276Z,16.13
2022-10-29T08:53:38.507Z,16.21
2022-10-29T08:56:45.470Z,16.38
2022-10-29T09:00:04.763Z,16.60
2022-10-29T09:03:10.916Z,16.78
2022-10-29T09:06:41.712Z,16.91
2022-10-29T09:09:49.267Z,17.02
2022-10-29T09:13:04.768Z,17.16
2022-10-29T09:16:06.302Z,17.30
2022-10-29T09:19:43.967Z,17.46
2022-10-29T09:23:02.481Z,17.63
2022-10-29T09:26:10.618Z,17.76
2022-10-29T09:29:45.989Z,18.01
2022-10-29T09:33:07.172Z,18.21
2022-10-29T09:36:18.444Z,18.37
2022-10-29T09:39:41.555Z,18.64
2022-10-29T09:42:46.728Z,18.91
2022-10-29T09:46:00.506Z,19.13
2022-10-29T09:49:34.119Z,19.43
2022-10-29T09:52:39.429Z,19.71
2022-10-29T09:55:44.241Z,19.80
2022-10-29T09:58:52.075Z,19.93
2022-10-29T10:01:53.605Z,20.00
2022-10-29T10:05:00.857Z,20.13
2022-10-29T10:08:06.778Z,20.24
2022-10-29T10:11:18.619Z,20.32
2022-10-29T10:14:22.523Z,20.42
2022-10-29T10:17:23.934Z,20.51
2022-10-29T10:20:32.693Z,20.64
2022-10-29T10:23:47.577Z,20.81
2022-10-29T10:26:49.106Z,20.91
2022-10-29T10:30:14.016Z,20.93
2022-10-29T10:33:26.424Z,20.97
2022-10-29T10:36:30.118Z,20.96
2022-10-29T10:39:36.808Z,20.94
2022-10-29T10:42:42.845Z,21.01
2022-10-29T10:45:46.462Z,21.08
2022-10-29T10:49:03.349Z,21.15
2022-10-29T10:52:13.944Z,21.10
2022-10-29T10:55:25.766Z,21.16
2022-10-29T10:58:37.703Z,21.11
2022-10-29T11:01:47.195Z,21.20
2022-10-29T11:05:00.932Z,21.25
2022-10-29T11:08:14.363Z,21.34
2022-10-29T11:11:20.982Z,21.42
2022-10-29T11:14:30.197Z,21.53
2022-10-29T11:17:56.513Z,21.59
2022-10-29T11:21:20.092Z,21.75
2022-10-29T11:24:35.137Z,21.86
2022-10-29T11:27:53.139Z,22.01
2022-10-29T11:31:17.486Z,22.03
2022-10-29T11:34:21.940Z,22.06
2022-10-29T11:37:33.853Z,22.17
2022-10-29T11:41:04.740Z,22.24
2022-10-29T11:44:12.830Z,22.29
2022-10-29T11:47:23.131Z,22.41
2022-10-29T11:50:28.734Z,22.53
2022-10-29T11:53:41.330Z,22.63
2022-10-29T11:56:57.942Z,22.77
2022-10-29T12:00:19.070Z,22.94
2022-10-29T12:03:39.090Z,22.99
2022-10-29T12:06:54.857Z,23.13
2022-10-29T12:09:59.430Z,23.19
2022-10-29T12:13:11.228Z,23.23
2022-10-29T12:16:15.379Z,23.33
2022-10-29T12:19:55.901Z,23.46
2022-10-29T12:23:03.944Z,23.59
2022-10-29T12:26:26.174Z,23.76
2022-10-29T12:29:34.040Z,23.94
2022-10-29T12:32:48.394Z,24.15
2022-10-29T12:35:56.902Z,24.34
2022-10-29T12:39:00.263Z,24.59
2022-10-29T12:42:16.549Z,24.78
2022-10-29T12:45:28.756Z,24.94
2022-10-29T12:48:51.604Z,25.06
2022-10-29T12:52:15.813Z,25.17
2022-10-29T12:55:17.893Z,25.30
2022-10-29T12:58:44.619Z,25.40
2022-10-29T13:05:11.128Z,25.43
2022-10-29T13:08:27.780Z,25.57
2022-10-29T13:11:46.091Z,25.63
2022-10-29T13:15:01.059Z,25.71
2022-10-29T13:18:24.024Z,25.78
2022-10-29T13:21:54.320Z,25.92
2022-10-29T13:25:33.967Z,26.05
2022-10-29T13:28:35.699Z,26.18
2022-10-29T13:31:45.554Z,26.22
2022-10-29T13:35:01.427Z,26.16
2022-10-29T13:38:15.909Z,25.93
2022-10-29T13:41:27.794Z,25.78
2022-10-29T13:44:30.114Z,25.63
2022-10-29T13:47:31.933Z,25.51
2022-10-29T13:50:35.932Z,25.37
2022-10-29T13:53:43.374Z,25.30
2022-10-29T13:57:16.428Z,25.11
2022-10-29T14:00:21.347Z,25.05
2022-10-29T14:03:41.825Z,24.89
2022-10-29T14:06:44.900Z,24.85
2022-10-29T14:09:54.725Z,24.81
2022-10-29T14:13:01.275Z,24.71
2022-10-29T14:16:05.671Z,24.74
2022-10-29T14:19:15.190Z,24.74
2022-10-29T14:22:22.879Z,24.64
2022-10-29T14:25:24.416Z,24.58
2022-10-29T14:28:27.736Z,24.57
2022-10-29T14:31:29.319Z,24.55
2022-10-29T14:34:30.958Z,24.51
2022-10-29T14:37:37.239Z,24.46
2022-10-29T14:40:38.879Z,24.43
2022-10-29T14:43:41.054Z,24.49
2022-10-29T14:46:44.253Z,24.51
2022-10-29T14:49:48.714Z,24.40
2022-10-29T14:52:57.826Z,24.11
2022-10-29T14:56:01.927Z,23.80
2022-10-29T14:59:10.818Z,23.52
2022-10-29T15:05:37.251Z,23.14
2022-10-29T15:08:40.765Z,22.96
2022-10-29T15:11:57.577Z,22.74
2022-10-29T15:15:08.923Z,22.41
2022-10-29T15:18:21.222Z,22.19
2022-10-29T15:21:24.814Z,22.02
2022-10-29T15:24:26.935Z,21.77
2022-10-29T15:27:28.894Z,21.59
2022-10-29T15:30:36.562Z,21.40
2022-10-29T15:33:38.199Z,21.26
2022-10-29T15:36:47.873Z,21.03
2022-10-29T15:40:01.646Z,20.81
2022-10-29T15:43:27.146Z,20.63
2022-10-29T15:46:44.252Z,20.53
2022-10-29T15:49:45.779Z,20.37
2022-10-29T15:52:52.995Z,20.17
2022-10-29T15:55:54.482Z,19.98
2022-10-29T15:59:00.901Z,19.75
2022-10-29T16:02:08.937Z,19.60
2022-10-29T16:05:13.871Z,19.46
2022-10-29T16:08:29.237Z,19.30
2022-10-29T16:11:31.106Z,19.14
2022-10-29T16:14:32.552Z,18.96
2022-10-29T16:17:36.700Z,18.77
2022-10-29T16:20:38.289Z,18.62
2022-10-29T16:23:40.505Z,18.52
2022-10-29T16:26:43.118Z,18.41
2022-10-29T16:29:47.011Z,18.27
2022-10-29T16:32:52.648Z,18.14
2022-10-29T16:35:54.178Z,18.03
2022-10-29T16:38:55.694Z,17.97
2022-10-29T16:41:57.318Z,17.91
2022-10-29T16:44:59.130Z,17.84
2022-10-29T16:48:01.664Z,17.80
2022-10-29T16:51:04.580Z,17.62
2022-10-29T16:54:06.061Z,17.62
2022-10-29T16:57:07.632Z,17.63
2022-10-29T17:00:09.739Z,17.62
2022-10-29T17:03:13.100Z,17.59
2022-10-29T17:06:14.584Z,17.51
2022-10-29T17:09:16.123Z,17.41
2022-10-29T17:12:17.644Z,17.31
2022-10-29T17:15:20.112Z,17.23
2022-10-29T17:18:23.142Z,17.10
2022-10-29T17:21:25.044Z,16.99
2022-10-29T17:24:27.278Z,16.95
2022-10-29T17:27:28.875Z,16.91
2022-10-29T17:30:30.386Z,16.87
2022-10-29T17:33:31.895Z,16.83
2022-10-29T17:36:33.429Z,16.79
2022-10-29T17:39:35.145Z,16.64
2022-10-29T17:42:36.664Z,16.54
2022-10-29T17:45:38.234Z,16.44
2022-10-29T17:48:39.892Z,16.35
2022-10-29T17:51:41.845Z,16.28
2022-10-29T17:54:43.494Z,16.17
2022-10-29T17:57:45.094Z,16.12
2022-10-29T18:00:48.397Z,16.08
2022-10-29T18:03:50.185Z,16.00
2022-10-29T18:06:51.725Z,15.94
2022-10-29T18:09:53.245Z,15.86
2022-10-29T18:12:54.801Z,15.75
2022-10-29T18:15:56.267Z,15.73
2022-10-29T18:19:02.820Z,15.67
2022-10-29T18:22:04.824Z,15.59
2022-10-29T18:25:06.522Z,15.56
2022-10-29T18:28:08.014Z,15.50
2022-10-29T18:31:09.520Z,15.36
2022-10-29T18:34:12.737Z,15.29
2022-10-29T18:37:14.468Z,15.27
2022-10-29T18:40:16.142Z,15.19
2022-10-29T18:43:17.795Z,15.21
2022-10-29T18:46:20.138Z,15.13
2022-10-29T18:49:21.972Z,15.04
2022-10-29T18:52:23.631Z,15.01
2022-10-29T18:55:25.550Z,15.02
2022-10-29T18:58:27.066Z,15.01
2022-10-29T19:01:32.073Z,14.92
2022-10-29T19:04:34.019Z,14.82
2022-10-29T19:07:35.679Z,14.85
2022-10-29T19:10:39.719Z,14.83
2022-10-29T19:13:44.546Z,14.70
2022-10-29T19:16:46.133Z,14.61
2022-10-29T19:19:47.848Z,14.58
2022-10-29T19:22:49.678Z,14.58
2022-10-29T19:25:51.299Z,14.62
2022-10-29T19:28:52.876Z,14.58
2022-10-29T19:31:54.511Z,14.58
2022-10-29T19:34:56.027Z,14.52
2022-10-29T19:37:57.852Z,14.47
2022-10-29T19:40:59.831Z,14.38
2022-10-29T19:44:02.109Z,14.34
2022-10-29T19:47:03.859Z,14.31
2022-10-29T19:50:08.346Z,14.29
2022-10-29T19:53:09.995Z,14.23
2022-10-29T19:56:14.114Z,14.20
2022-10-29T19:59:15.722Z,14.14
2022-10-29T20:02:17.471Z,14.11
2022-10-29T20:05:20.381Z,14.08
2022-10-29T20:08:22.082Z,14.03
2022-10-29T20:11:23.775Z,13.93
2022-10-29T20:14:28.923Z,13.90
2022-10-29T20:17:31.496Z,13.87
2022-10-29T20:20:33.124Z,13.87
2022-10-29T20:23:35.614Z,13.79
2022-10-29T20:26:37.261Z,13.76
2022-10-29T20:29:38.785Z,13.75
2022-10-29T20:32:40.400Z,13.71
2022-10-29T20:35:41.992Z,13.69
2022-10-29T20:38:43.681Z,13.61
2022-10-29T20:41:45.331Z,13.58
2022-10-29T20:44:47.009Z,13.55
2022-10-29T20:47:48.765Z,13.53
2022-10-29T20:50:53.372Z,13.47
2022-10-29T20:53:55.643Z,13.36
2022-10-29T20:56:57.282Z,13.29
2022-10-29T20:59:59.070Z,13.29
2022-10-29T21:03:00.613Z,13.28
2022-10-29T21:06:04.045Z,13.26
2022-10-29T21:09:07.111Z,13.24
2022-10-29T21:12:08.726Z,13.21
2022-10-29T21:15:10.376Z,13.17
2022-10-29T21:18:12.000Z,13.04
2022-10-29T21:21:14.056Z,13.02
2022-10-29T21:24:15.607Z,12.97
2022-10-29T21:27:17.204Z,13.02
2022-10-29T21:30:18.738Z,13.08
2022-10-29T21:33:20.251Z,13.10
2022-10-29T21:36:22.128Z,13.14
2022-10-29T21:39:23.657Z,13.10
2022-10-29T21:42:25.199Z,13.08
2022-10-29T21:45:26.766Z,13.09
2022-10-29T21:48:29.274Z,13.21
2022-10-29T21:51:30.828Z,13.26
2022-10-29T21:54:32.344Z,13.28
2022-10-29T21:57:34.326Z,13.26
2022-10-29T22:00:35.876Z,13.25
2022-10-29T22:03:40.451Z,13.20
2022-10-29T22:06:42.050Z,13.11
2022-10-29T22:09:43.638Z,13.02
2022-10-29T22:12:45.124Z,13.03
2022-10-29T22:15:46.697Z,12.98
2022-10-29T22:18:49.845Z,12.88
2022-10-29T22:21:51.395Z,12.89
2022-10-29T22:24:53.065Z,12.86
2022-10-29T22:27:54.748Z,12.83
2022-10-29T22:31:01.169Z,12.85
2022-10-29T22:34:02.683Z,12.89
2022-10-29T22:37:04.507Z,12.85
2022-10-29T22:40:06.798Z,12.83
2022-10-29T22:43:11.961Z,12.81
2022-10-29T22:46:15.674Z,12.82
2022-10-29T22:49:26.039Z,12.72
2022-10-29T22:52:27.637Z,12.68
2022-10-29T22:55:29.219Z,12.68
2022-10-29T22:58:30.839Z,12.61
2022-10-29T23:01:38.785Z,12.58
2022-10-29T23:04:43.913Z,12.58
2022-10-29T23:07:45.538Z,12.51
2022-10-29T23:10:47.083Z,12.48
2022-10-29T23:17:05.590Z,12.40
2022-10-29T23:20:07.385Z,12.37
2022-10-29T23:23:09.000Z,12.37
2022-10-29T23:26:11.624Z,12.39
2022-10-29T23:29:13.216Z,12.40
2022-10-29T23:32:14.738Z,12.43
2022-10-29T23:35:16.344Z,12.42
2022-10-29T23:38:18.391Z,12.43
2022-10-29T23:41:19.978Z,12.36
2022-10-29T23:44:21.486Z,12.30
2022-10-29T23:47:23.131Z,12.27
2022-10-29T23:50:24.646Z,12.25
2022-10-29T23:53:26.215Z,12.21
2022-10-29T23:56:27.759Z,12.17
2022-10-29T23:59:29.387Z,12.06
